Time;durP1;ratioP1;P1;durP2;ratioP2;P2;SDS_P1;SDS_P2;PMS_P1;PMS_P2;Temp;Humidity;BMP_temperature;BMP_pressure;BME280_temperature;BME280_humidity;BME280_pressure;Samples;Min_cycle;Max_cycle;Signal;HPM_P1;HPM_P2
2022/01/03 00:02:17;;;;;;;0.95;0.63;;;10.00;99.90;;;;;;5089436;28;20146;-51
2022/01/03 00:04:42;;;;;;;1.75;0.93;;;9.90;99.90;;;;;;5089722;28;20716;-50
2022/01/03 00:07:10;;;;;;;2.17;0.65;;;9.90;99.90;;;;;;5086432;28;20437;-48
2022/01/03 00:09:36;;;;;;;1.58;0.70;;;9.90;99.90;;;;;;5080936;28;20012;-47
2022/01/03 00:12:02;;;;;;;0.90;0.68;;;9.90;99.90;;;;;;5089852;28;20017;-47
2022/01/03 00:14:29;;;;;;;1.60;0.95;;;9.90;99.90;;;;;;5089243;28;20477;-47
2022/01/03 00:16:54;;;;;;;1.00;0.57;;;9.90;99.90;;;;;;5089583;28;20111;-48
2022/01/03 00:19:19;;;;;;;0.65;0.43;;;9.90;99.90;;;;;;5089031;28;20165;-47
2022/01/03 00:21:46;;;;;;;1.17;0.80;;;10.00;99.90;;;;;;5088838;28;20032;-47
2022/01/03 00:24:13;;;;;;;0.85;0.60;;;9.90;99.90;;;;;;5088801;28;20030;-47
2022/01/03 00:26:40;;;;;;;0.30;0.30;;;10.00;99.90;;;;;;5089455;28;20431;-50
2022/01/03 00:29:16;;;;;;;1.33;0.40;;;9.90;99.90;;;;;;5088247;28;20077;-47
2022/01/03 00:31:42;;;;;;;0.68;0.55;;;10.00;99.90;;;;;;5088694;28;20142;-47
2022/01/03 00:34:11;;;;;;;2.05;0.55;;;10.00;99.90;;;;;;5089092;28;20016;-48
2022/01/03 00:36:38;;;;;;;0.85;0.40;;;10.00;99.90;;;;;;5088870;28;20026;-48
2022/01/03 00:39:07;;;;;;;0.95;0.38;;;9.90;99.90;;;;;;5076238;28;20494;-49
2022/01/03 00:41:36;;;;;;;1.58;0.55;;;9.90;99.90;;;;;;5089228;28;20038;-49
2022/01/03 00:44:01;;;;;;;0.75;0.50;;;10.00;99.90;;;;;;5089221;28;20023;-50
2022/01/03 00:46:27;;;;;;;0.77;0.50;;;10.00;99.90;;;;;;5089273;28;20032;-44
2022/01/03 00:48:54;;;;;;;1.00;0.40;;;10.00;99.90;;;;;;5086780;28;20028;-45
2022/01/03 00:51:19;;;;;;;1.13;0.50;;;10.10;99.90;;;;;;5088964;28;20281;-45
2022/01/03 00:53:49;;;;;;;2.20;0.65;;;10.00;99.90;;;;;;5088447;28;20039;-44
2022/01/03 00:56:22;;;;;;;0.80;0.60;;;10.10;99.90;;;;;;5088699;28;20278;-45
2022/01/03 00:59:02;;;;;;;2.38;0.80;;;10.10;99.90;;;;;;5088079;28;20111;-46
2022/01/03 01:01:29;;;;;;;1.70;0.70;;;10.10;99.90;;;;;;5088192;28;20401;-45
2022/01/03 01:03:56;;;;;;;1.38;0.82;;;10.20;99.90;;;;;;5088647;28;20107;-46
2022/01/03 01:06:23;;;;;;;1.10;0.90;;;10.20;99.90;;;;;;5088506;28;20516;-44
2022/01/03 01:08:55;;;;;;;1.20;1.10;;;10.20;99.90;;;;;;5078427;28;20063;-50
2022/01/03 01:11:26;;;;;;;3.22;1.10;;;10.20;99.90;;;;;;5088501;28;20382;-47
2022/01/03 01:13:51;;;;;;;2.75;1.13;;;10.20;99.90;;;;;;5088202;28;20440;-47
2022/01/03 01:16:17;;;;;;;2.10;1.50;;;10.20;99.90;;;;;;5088421;28;20028;-48
2022/01/03 01:18:44;;;;;;;5.07;1.40;;;10.20;99.90;;;;;;5087928;28;20501;-48
2022/01/03 01:21:10;;;;;;;2.78;1.33;;;10.30;99.90;;;;;;5088132;28;20567;-48
2022/01/03 01:23:39;;;;;;;4.90;1.70;;;10.30;99.90;;;;;;5071646;28;20021;-51
2022/01/03 01:28:49;;;;;;;5.82;1.90;;;10.30;99.90;;;;;;5071908;28;20035;-47
2022/01/03 01:31:20;;;;;;;3.15;1.50;;;10.40;99.90;;;;;;5078578;28;20028;-47
2022/01/03 01:33:45;;;;;;;3.40;2.35;;;10.40;99.90;;;;;;5087574;28;20048;-47
2022/01/03 01:36:13;;;;;;;4.47;2.10;;;10.40;99.90;;;;;;5088250;28;20078;-50
2022/01/03 01:38:40;;;;;;;5.50;1.92;;;10.50;99.90;;;;;;5078833;28;20024;-48
2022/01/03 01:41:08;;;;;;;7.10;2.25;;;10.60;99.90;;;;;;5086015;28;20032;-47
2022/01/03 01:43:39;;;;;;;8.35;2.72;;;10.70;99.90;;;;;;5087604;28;20036;-48
2022/01/03 01:46:13;;;;;;;6.15;2.00;;;10.80;99.90;;;;;;5087869;28;20032;-47
2022/01/03 01:48:43;;;;;;;6.82;1.65;;;10.80;99.90;;;;;;5068198;28;20123;-48
2022/01/03 01:51:11;;;;;;;4.47;2.08;;;10.80;99.90;;;;;;5067957;28;20108;-50
2022/01/03 01:53:44;;;;;;;7.82;2.10;;;10.90;99.90;;;;;;5066843;28;20048;-48
2022/01/03 01:56:19;;;;;;;4.60;1.98;;;10.80;99.90;;;;;;5067458;28;20363;-49
2022/01/03 01:59:01;;;;;;;6.85;1.73;;;10.80;99.90;;;;;;5065498;28;20032;-50
2022/01/03 02:01:48;;;;;;;11.60;2.17;;;10.80;99.90;;;;;;5067342;28;20394;-49
2022/01/03 02:04:38;;;;;;;10.07;2.38;;;10.60;99.90;;;;;;5067463;28;20040;-48
2022/01/03 02:07:53;;;;;;;7.20;2.20;;;10.40;99.90;;;;;;5068158;28;20032;-49
2022/01/03 02:10:26;;;;;;;9.60;1.95;;;10.20;99.90;;;;;;5079212;28;20035;-48
2022/01/03 02:12:51;;;;;;;5.93;2.17;;;10.00;99.90;;;;;;5088004;28;20028;-48
2022/01/03 02:15:18;;;;;;;5.97;2.50;;;9.90;99.90;;;;;;5087601;28;20513;-48
2022/01/03 02:17:46;;;;;;;9.18;2.20;;;9.80;99.90;;;;;;5085243;28;20024;-48
2022/01/03 02:20:23;;;;;;;3.88;1.60;;;9.70;99.90;;;;;;5086452;28;20024;-50
2022/01/03 02:22:50;;;;;;;3.80;1.33;;;9.70;99.90;;;;;;5087498;28;20024;-49
2022/01/03 02:25:17;;;;;;;2.88;1.83;;;9.70;99.90;;;;;;5087413;28;20032;-48
2022/01/03 02:27:44;;;;;;;8.55;1.60;;;9.60;99.90;;;;;;5087213;28;20035;-52
2022/01/03 02:30:13;;;;;;;10.30;1.63;;;9.60;99.90;;;;;;5087388;28;20028;-47
2022/01/03 02:32:40;;;;;;;4.43;1.58;;;9.60;99.90;;;;;;5087429;28;20414;-48
2022/01/03 02:35:06;;;;;;;4.78;1.50;;;9.50;99.90;;;;;;5087434;28;20055;-48
2022/01/03 02:37:32;;;;;;;7.05;1.30;;;9.50;99.90;;;;;;5078843;28;20020;-49
2022/01/03 02:39:58;;;;;;;8.93;2.20;;;9.50;99.90;;;;;;5074606;28;20381;-47
2022/01/03 02:42:25;;;;;;;6.53;1.15;;;9.50;99.90;;;;;;5087471;28;20036;-48
2022/01/03 02:45:04;;;;;;;5.85;1.10;;;9.50;99.90;;;;;;5091138;28;20386;-49
2022/01/03 02:47:30;;;;;;;4.85;1.48;;;9.40;99.90;;;;;;5090608;28;20024;-47
2022/01/03 02:49:55;;;;;;;10.05;1.60;;;9.40;99.90;;;;;;5089581;28;20397;-49
2022/01/03 02:52:21;;;;;;;12.85;2.15;;;9.30;99.90;;;;;;5091008;28;20105;-48
2022/01/03 02:54:48;;;;;;;14.38;1.90;;;9.30;99.90;;;;;;5089883;28;20042;-47
2022/01/03 02:57:14;;;;;;;5.90;1.48;;;9.40;99.90;;;;;;5091060;28;20412;-47
2022/01/03 02:59:39;;;;;;;9.13;2.00;;;9.30;99.90;;;;;;5090709;28;20020;-47
2022/01/03 03:02:06;;;;;;;9.60;1.88;;;9.30;99.90;;;;;;5090518;28;20035;-48
2022/01/03 03:04:31;;;;;;;13.13;1.98;;;9.30;99.90;;;;;;5090922;28;20024;-45
2022/01/03 03:06:57;;;;;;;6.53;2.20;;;9.30;99.90;;;;;;5090765;28;20032;-46
2022/01/03 03:09:22;;;;;;;8.05;2.30;;;9.30;99.90;;;;;;5077873;28;20013;-46
2022/01/03 03:11:48;;;;;;;10.25;2.53;;;9.30;99.90;;;;;;5086175;28;20036;-45
2022/01/03 03:14:13;;;;;;;10.20;2.28;;;9.30;99.90;;;;;;5090351;28;20056;-46
2022/01/03 03:16:40;;;;;;;8.55;2.00;;;9.40;99.90;;;;;;5090772;28;20024;-47
2022/01/03 03:19:06;;;;;;;11.18;2.40;;;9.30;99.90;;;;;;5089836;28;20052;-45
2022/01/03 03:21:32;;;;;;;9.65;2.42;;;9.40;99.90;;;;;;5090467;28;20058;-45
2022/01/03 03:23:58;;;;;;;7.15;1.73;;;9.40;99.90;;;;;;5090209;28;20071;-48
2022/01/03 03:26:25;;;;;;;8.95;2.40;;;9.40;99.90;;;;;;5090033;28;20237;-48
2022/01/03 03:28:50;;;;;;;10.45;3.05;;;9.40;99.90;;;;;;5089640;28;20234;-47
2022/01/03 03:31:17;;;;;;;16.05;2.90;;;9.50;99.90;;;;;;5090375;28;20376;-46
2022/01/03 03:33:43;;;;;;;14.90;2.60;;;9.50;99.90;;;;;;5090440;28;20028;-47
2022/01/03 03:36:09;;;;;;;12.57;2.97;;;9.50;99.90;;;;;;5090181;28;20035;-45
2022/01/03 03:38:35;;;;;;;8.93;2.42;;;9.60;99.90;;;;;;5080532;28;20381;-45
2022/01/03 03:41:01;;;;;;;10.05;2.28;;;9.60;99.90;;;;;;5080274;28;20036;-49
2022/01/03 03:43:27;;;;;;;15.60;2.42;;;9.50;99.90;;;;;;5089620;28;20035;-50
2022/01/03 03:45:52;;;;;;;11.38;2.10;;;9.60;99.90;;;;;;5090017;28;20021;-48
2022/01/03 03:48:19;;;;;;;9.60;2.22;;;9.50;99.90;;;;;;5089190;28;20094;-48
2022/01/03 03:50:46;;;;;;;11.77;3.17;;;9.50;99.90;;;;;;5089915;28;20028;-48
2022/01/03 03:53:12;;;;;;;13.27;2.20;;;9.50;99.90;;;;;;5089363;28;20027;-47
2022/01/03 03:55:38;;;;;;;16.83;3.42;;;9.50;99.90;;;;;;5089539;28;20028;-48
2022/01/03 03:58:04;;;;;;;15.77;1.98;;;9.50;99.90;;;;;;5088132;28;20264;-49
2022/01/03 04:00:33;;;;;;;12.50;2.58;;;9.40;99.90;;;;;;5089906;28;20326;-47
2022/01/03 04:02:59;;;;;;;13.38;2.47;;;9.40;99.90;;;;;;5089469;28;20405;-47
2022/01/03 04:05:24;;;;;;;16.33;2.55;;;9.40;99.90;;;;;;5089667;28;20035;-47
2022/01/03 04:07:50;;;;;;;14.93;2.45;;;9.40;99.90;;;;;;5083020;28;20028;-47
2022/01/03 04:10:16;;;;;;;12.00;2.35;;;9.40;99.90;;;;;;5080343;28;20032;-47
2022/01/03 04:12:43;;;;;;;8.93;3.20;;;9.40;99.90;;;;;;5089088;28;20023;-47
2022/01/03 04:15:09;;;;;;;9.32;2.30;;;9.40;99.90;;;;;;5089630;28;20031;-47
2022/01/03 04:17:35;;;;;;;16.98;2.30;;;9.40;99.90;;;;;;5087191;28;20027;-47
2022/01/03 04:20:01;;;;;;;9.43;2.75;;;9.40;99.90;;;;;;5089379;28;20028;-47
2022/01/03 04:22:27;;;;;;;15.70;3.22;;;9.40;99.90;;;;;;5089325;28;20039;-47
2022/01/03 04:24:52;;;;;;;22.33;3.30;;;9.40;99.90;;;;;;5088938;28;20062;-47
2022/01/03 04:27:18;;;;;;;17.27;3.22;;;9.40;99.90;;;;;;5088746;28;20035;-47
2022/01/03 04:29:43;;;;;;;13.70;2.67;;;9.40;99.90;;;;;;5089122;28;20570;-47
2022/01/03 04:32:10;;;;;;;10.52;2.42;;;9.40;99.90;;;;;;5089874;28;20493;-46
2022/01/03 04:34:37;;;;;;;13.77;2.75;;;9.40;99.90;;;;;;5089321;28;20081;-46
2022/01/03 04:37:02;;;;;;;11.27;2.13;;;9.30;99.90;;;;;;5089512;28;20017;-48
2022/01/03 04:39:28;;;;;;;14.43;2.88;;;9.40;99.90;;;;;;5076452;28;20033;-46
2022/01/03 04:41:54;;;;;;;10.27;2.38;;;9.40;99.90;;;;;;5085510;28;20040;-46
2022/01/03 04:44:19;;;;;;;14.85;2.45;;;9.40;99.90;;;;;;5089292;28;20500;-47
2022/01/03 04:46:45;;;;;;;18.65;3.20;;;9.40;99.90;;;;;;5089245;28;20656;-46
2022/01/03 04:49:11;;;;;;;13.27;2.75;;;9.40;99.90;;;;;;5088398;28;20032;-48
2022/01/03 04:51:37;;;;;;;16.20;4.25;;;9.40;99.90;;;;;;5089067;28;20063;-47
2022/01/03 04:54:03;;;;;;;13.85;3.35;;;9.30;99.90;;;;;;5088816;28;20024;-46
2022/01/03 04:56:29;;;;;;;16.15;2.85;;;9.30;99.90;;;;;;5082877;28;20168;-46
2022/01/03 04:58:55;;;;;;;20.63;3.33;;;9.30;99.90;;;;;;5067563;28;20025;-46
2022/01/03 05:01:22;;;;;;;12.48;2.65;;;9.30;99.90;;;;;;5066996;28;20055;-46
2022/01/03 05:03:48;;;;;;;19.50;3.10;;;9.30;99.90;;;;;;5064948;28;20021;-47
2022/01/03 05:06:13;;;;;;;11.38;2.83;;;9.30;99.90;;;;;;5064506;28;20028;-47
2022/01/03 05:08:41;;;;;;;20.40;3.30;;;9.40;99.90;;;;;;5064790;28;20039;-50
2022/01/03 05:11:06;;;;;;;15.68;3.00;;;9.30;99.90;;;;;;5071176;28;20047;-49
2022/01/03 05:13:32;;;;;;;15.93;3.63;;;9.40;99.90;;;;;;5071132;28;20092;-49
2022/01/03 05:15:59;;;;;;;14.70;3.22;;;9.50;99.90;;;;;;5069012;28;20063;-48
2022/01/03 05:18:25;;;;;;;11.98;3.15;;;9.50;99.90;;;;;;5072429;28;20478;-48
2022/01/03 05:20:51;;;;;;;16.45;2.67;;;9.50;99.90;;;;;;5072674;28;20077;-50
2022/01/03 05:23:18;;;;;;;17.25;3.65;;;9.50;99.90;;;;;;5080175;28;20027;-50
2022/01/03 05:25:43;;;;;;;21.10;3.92;;;9.60;99.90;;;;;;5074309;28;20032;-46
2022/01/03 05:28:10;;;;;;;9.25;2.67;;;9.50;99.90;;;;;;5078314;28;20081;-48
2022/01/03 05:30:35;;;;;;;12.18;3.38;;;9.50;99.90;;;;;;5088116;28;20032;-49
2022/01/03 05:33:01;;;;;;;21.25;3.15;;;9.50;99.90;;;;;;5088144;28;20120;-46
2022/01/03 05:35:26;;;;;;;8.85;2.67;;;9.50;99.90;;;;;;5087598;28;20020;-46
2022/01/03 05:37:52;;;;;;;13.38;3.15;;;9.50;99.90;;;;;;5080241;28;20020;-47
2022/01/03 05:40:18;;;;;;;22.60;3.63;;;9.50;99.90;;;;;;5079073;28;20073;-47
2022/01/03 05:42:46;;;;;;;16.15;3.45;;;9.50;99.90;;;;;;5088310;28;20024;-46
2022/01/03 05:45:12;;;;;;;23.58;4.90;;;9.50;99.90;;;;;;5088254;28;20055;-46
2022/01/03 05:47:40;;;;;;;15.70;3.30;;;9.50;99.90;;;;;;5086874;28;20106;-48
2022/01/03 05:50:06;;;;;;;14.70;3.38;;;9.50;99.90;;;;;;5087422;28;20576;-48
2022/01/03 05:52:33;;;;;;;23.55;3.65;;;9.60;99.90;;;;;;5087687;28;20039;-51
2022/01/03 05:54:58;;;;;;;17.77;3.33;;;9.60;99.90;;;;;;5087387;28;20035;-47
2022/01/03 05:57:24;;;;;;;20.77;3.13;;;9.60;99.90;;;;;;5087360;28;20028;-47
2022/01/03 05:59:50;;;;;;;20.63;3.92;;;9.60;99.90;;;;;;5087259;28;20763;-47
2022/01/03 06:02:15;;;;;;;14.23;3.08;;;9.60;99.90;;;;;;5087946;28;20056;-46
2022/01/03 06:04:52;;;;;;;21.25;3.10;;;9.60;99.90;;;;;;5087656;28;20049;-47
2022/01/03 06:07:18;;;;;;;10.70;2.65;;;9.60;99.90;;;;;;5086614;28;20024;-46
2022/01/03 06:09:44;;;;;;;14.55;3.22;;;9.60;99.90;;;;;;5074597;28;20067;-46
2022/01/03 06:12:10;;;;;;;18.52;3.15;;;9.50;99.90;;;;;;5086354;28;20042;-46
2022/01/03 06:14:37;;;;;;;13.98;3.25;;;9.40;99.90;;;;;;5087156;28;20028;-47
2022/01/03 06:17:05;;;;;;;17.67;3.55;;;9.30;99.90;;;;;;5087533;28;20028;-48
2022/01/03 06:19:32;;;;;;;12.95;3.17;;;9.30;99.90;;;;;;5090283;28;20047;-47
2022/01/03 06:21:58;;;;;;;19.08;3.53;;;9.30;99.90;;;;;;5091703;28;20039;-48
2022/01/03 06:24:24;;;;;;;15.07;3.40;;;9.30;99.90;;;;;;5087304;28;20024;-49
2022/01/03 06:26:50;;;;;;;22.88;4.18;;;9.30;99.90;;;;;;5074918;28;20020;-50
2022/01/03 06:29:18;;;;;;;16.73;3.95;;;9.30;99.90;;;;;;5087097;28;20016;-46
2022/01/03 06:31:45;;;;;;;11.50;2.88;;;9.30;99.90;;;;;;5071182;28;20066;-47
2022/01/03 06:34:11;;;;;;;16.30;3.65;;;9.30;99.90;;;;;;5069764;28;20446;-46
2022/01/03 06:36:36;;;;;;;13.00;3.65;;;9.30;99.90;;;;;;5070805;28;20048;-49
2022/01/03 06:39:04;;;;;;;12.30;3.63;;;9.40;99.90;;;;;;5077369;28;20031;-48
2022/01/03 06:41:30;;;;;;;13.30;3.58;;;9.40;99.90;;;;;;5083035;28;20201;-47
2022/01/03 06:43:56;;;;;;;13.98;3.08;;;9.50;99.90;;;;;;5091205;28;20028;-49
2022/01/03 06:46:22;;;;;;;21.17;3.80;;;9.50;99.90;;;;;;5091399;28;20171;-48
2022/01/03 06:48:49;;;;;;;23.20;4.30;;;9.40;99.90;;;;;;5090788;28;20119;-47
2022/01/03 06:51:15;;;;;;;17.52;3.67;;;9.50;99.90;;;;;;5090989;28;20020;-50
2022/01/03 06:53:40;;;;;;;24.25;4.28;;;9.40;99.90;;;;;;5090874;28;20021;-47
2022/01/03 06:56:06;;;;;;;19.83;3.75;;;9.50;99.90;;;;;;5091211;28;20028;-47
2022/01/03 06:58:32;;;;;;;20.80;4.07;;;9.50;99.90;;;;;;5078947;28;20040;-48
2022/01/03 07:00:58;;;;;;;21.60;4.40;;;9.50;99.90;;;;;;5079294;28;20510;-48
2022/01/03 07:03:24;;;;;;;17.13;3.95;;;9.40;99.90;;;;;;5089484;28;20038;-48
2022/01/03 07:05:50;;;;;;;18.98;3.50;;;9.40;99.90;;;;;;5090874;28;20508;-48
2022/01/03 07:08:15;;;;;;;14.35;4.53;;;9.40;99.90;;;;;;5085404;28;20020;-49
2022/01/03 07:10:42;;;;;;;25.30;5.20;;;9.40;99.90;;;;;;5082131;28;20065;-48
2022/01/03 07:13:07;;;;;;;26.40;4.70;;;9.40;99.90;;;;;;5090686;28;20107;-48
2022/01/03 07:21:02;;;;;;;20.60;5.10;;;9.40;99.90;;;;;;5074203;28;20086;-47
2022/01/03 07:23:27;;;;;;;23.48;3.65;;;9.40;99.90;;;;;;5074253;28;20440;-47
2022/01/03 07:25:53;;;;;;;19.30;4.10;;;9.30;99.90;;;;;;5079273;28;20035;-47
2022/01/03 07:28:19;;;;;;;27.67;5.00;;;9.40;99.90;;;;;;5081182;28;20493;-48
2022/01/03 07:30:45;;;;;;;26.15;5.10;;;9.30;99.90;;;;;;5089041;28;20362;-46
2022/01/03 07:33:11;;;;;;;17.33;4.22;;;9.30;99.90;;;;;;5087594;28;20024;-48
2022/01/03 07:35:36;;;;;;;28.83;4.50;;;9.30;99.90;;;;;;5084082;28;20024;-48
2022/01/03 07:38:03;;;;;;;23.05;5.13;;;9.30;99.90;;;;;;5069112;28;20073;-48
2022/01/03 07:40:29;;;;;;;29.08;4.95;;;9.30;99.90;;;;;;5089980;28;20114;-46
2022/01/03 07:42:55;;;;;;;19.65;4.80;;;9.30;99.90;;;;;;5088213;28;20127;-47
2022/01/03 07:45:21;;;;;;;20.52;5.32;;;9.30;99.90;;;;;;5090664;28;20546;-48
2022/01/03 07:47:47;;;;;;;19.08;5.07;;;9.30;99.90;;;;;;5089372;28;20103;-48
2022/01/03 07:50:13;;;;;;;22.67;4.00;;;9.40;99.90;;;;;;5086767;28;20027;-51
2022/01/03 07:52:38;;;;;;;22.52;5.00;;;9.40;99.90;;;;;;5077714;28;20020;-48
2022/01/03 07:55:06;;;;;;;27.05;4.78;;;9.40;99.90;;;;;;5085911;28;20024;-48
2022/01/03 07:57:32;;;;;;;19.02;4.10;;;9.50;99.90;;;;;;5076946;28;20375;-48
2022/01/03 07:59:58;;;;;;;23.10;4.47;;;9.50;99.90;;;;;;5087078;28;20031;-50
2022/01/03 08:02:24;;;;;;;24.15;5.22;;;9.50;99.90;;;;;;5089420;28;20632;-47
2022/01/03 08:04:49;;;;;;;22.52;4.60;;;9.60;99.90;;;;;;5088766;28;20058;-48
2022/01/03 08:07:15;;;;;;;27.30;5.82;;;9.70;99.90;;;;;;5079476;28;20021;-48
2022/01/03 08:09:40;;;;;;;13.82;4.32;;;9.70;99.90;;;;;;5076851;28;20020;-47
2022/01/03 08:12:07;;;;;;;22.27;5.85;;;9.80;99.90;;;;;;5087344;28;20482;-48
2022/01/03 08:14:34;;;;;;;17.48;4.97;;;9.70;99.90;;;;;;5089440;28;20562;-48
2022/01/03 08:16:59;;;;;;;16.85;5.72;;;9.70;99.90;;;;;;5089369;28;20066;-48
2022/01/03 08:19:25;;;;;;;18.63;5.05;;;9.70;99.90;;;;;;5088759;28;20024;-47
2022/01/03 08:21:51;;;;;;;20.38;5.63;;;9.80;99.90;;;;;;5089312;28;20020;-49
2022/01/03 08:24:17;;;;;;;22.85;5.82;;;9.80;99.90;;;;;;5088741;28;20028;-49
2022/01/03 08:26:43;;;;;;;34.03;7.57;;;9.80;99.90;;;;;;5088974;28;20473;-47
2022/01/03 08:29:09;;;;;;;19.05;5.97;;;9.80;99.90;;;;;;5088536;28;20028;-47
2022/01/03 08:31:36;;;;;;;21.88;5.80;;;9.70;99.90;;;;;;5089535;28;20166;-47
2022/01/03 08:34:03;;;;;;;24.33;6.80;;;9.70;99.90;;;;;;5088682;28;20044;-46
2022/01/03 08:36:28;;;;;;;17.77;5.93;;;9.70;99.90;;;;;;5089087;28;20024;-47
2022/01/03 08:38:54;;;;;;;19.52;6.75;;;9.80;99.90;;;;;;5082526;28;20101;-47
2022/01/03 08:41:19;;;;;;;20.98;6.93;;;9.90;99.90;;;;;;5071711;28;20554;-49
2022/01/03 08:43:45;;;;;;;34.88;6.47;;;9.90;99.90;;;;;;5086917;28;20028;-47
2022/01/03 08:46:10;;;;;;;22.67;6.10;;;10.00;99.90;;;;;;5074343;28;20057;-47
2022/01/03 08:48:36;;;;;;;18.67;5.85;;;10.10;99.90;;;;;;5077809;28;20073;-47
2022/01/03 08:51:02;;;;;;;16.77;6.40;;;10.10;99.90;;;;;;5075796;28;20699;-50
2022/01/03 08:53:27;;;;;;;22.17;5.78;;;10.00;99.90;;;;;;5079188;28;20074;-48
2022/01/03 08:55:57;;;;;;;18.50;6.38;;;10.00;99.90;;;;;;5082531;28;20036;-47
2022/01/03 08:58:24;;;;;;;24.30;5.47;;;10.00;99.90;;;;;;5073523;28;20382;-47
2022/01/03 09:00:49;;;;;;;18.10;6.10;;;10.00;99.90;;;;;;5088261;28;20039;-48
2022/01/03 09:03:15;;;;;;;21.25;5.68;;;10.00;99.90;;;;;;5089923;28;20028;-49
2022/01/03 09:05:41;;;;;;;24.98;5.90;;;10.10;99.90;;;;;;5071486;28;20112;-49
2022/01/03 09:08:08;;;;;;;24.15;6.22;;;10.10;99.90;;;;;;5087927;28;20078;-49
2022/01/03 09:10:34;;;;;;;27.00;5.90;;;10.10;99.90;;;;;;5079102;28;20318;-47
2022/01/03 09:13:00;;;;;;;17.65;6.55;;;10.20;99.90;;;;;;5089490;28;20089;-48
2022/01/03 09:15:26;;;;;;;20.00;6.00;;;10.30;99.90;;;;;;5089381;28;20474;-47
2022/01/03 09:17:51;;;;;;;26.67;5.82;;;10.40;99.90;;;;;;5088642;28;20020;-48
2022/01/03 09:20:17;;;;;;;22.77;5.20;;;10.50;99.90;;;;;;5089360;28;20042;-49
2022/01/03 09:22:46;;;;;;;24.92;6.75;;;10.60;99.90;;;;;;5089367;28;20501;-50
2022/01/03 09:30:35;;;;;;;29.83;6.25;;;10.40;99.90;;;;;;5089291;28;20412;-48
2022/01/03 09:33:01;;;;;;;21.50;5.43;;;10.40;99.90;;;;;;5089145;28;20035;-50
2022/01/03 09:35:27;;;;;;;25.02;6.38;;;10.40;99.90;;;;;;5089144;28;20488;-50
2022/01/03 09:37:54;;;;;;;25.25;6.43;;;10.40;99.90;;;;;;5087779;28;20085;-48
2022/01/03 09:40:19;;;;;;;26.70;6.57;;;10.40;99.90;;;;;;5076987;28;20016;-50
2022/01/03 09:42:51;;;;;;;32.05;6.40;;;10.50;99.90;;;;;;5084205;28;20035;-48
2022/01/03 09:45:17;;;;;;;22.75;6.30;;;10.50;99.90;;;;;;5089090;28;20016;-48
2022/01/03 09:47:44;;;;;;;24.63;5.13;;;10.50;99.90;;;;;;5087312;28;20066;-50
2022/01/03 09:50:21;;;;;;;25.25;5.68;;;10.50;99.90;;;;;;5087293;28;20198;-50
2022/01/03 09:52:47;;;;;;;22.38;6.40;;;10.60;99.90;;;;;;5074200;28;20012;-47
2022/01/03 09:55:16;;;;;;;25.85;6.40;;;10.60;99.90;;;;;;5079129;28;20109;-47
2022/01/03 09:57:44;;;;;;;18.00;6.15;;;10.80;99.90;;;;;;5088346;28;20016;-47
2022/01/03 10:00:11;;;;;;;18.83;5.40;;;10.80;99.90;;;;;;5080156;28;20025;-47
2022/01/03 10:02:37;;;;;;;18.30;4.80;;;10.90;99.90;;;;;;5082406;28;20466;-50
2022/01/03 10:05:04;;;;;;;22.17;5.32;;;11.00;99.90;;;;;;5088672;28;20031;-48
2022/01/03 10:07:29;;;;;;;23.85;5.97;;;10.90;99.90;;;;;;5088105;28;20032;-47
2022/01/03 10:09:55;;;;;;;21.63;5.63;;;10.90;99.90;;;;;;5074522;28;20017;-48
2022/01/03 10:12:21;;;;;;;22.45;5.85;;;10.80;99.90;;;;;;5057517;28;20099;-47
2022/01/03 10:14:46;;;;;;;20.95;5.32;;;10.80;99.90;;;;;;5061588;28;20033;-48
2022/01/03 10:17:12;;;;;;;25.40;5.50;;;10.90;99.90;;;;;;5047345;28;20244;-47
2022/01/03 10:20:02;;;;;;;19.38;5.57;;;10.80;99.90;;;;;;5067788;28;20518;-47
2022/01/03 10:22:29;;;;;;;23.23;5.43;;;10.90;99.90;;;;;;5067982;28;20106;-48
2022/01/03 10:24:57;;;;;;;19.80;5.47;;;10.90;99.90;;;;;;5078771;28;20297;-47
2022/01/03 10:27:24;;;;;;;18.40;6.15;;;10.80;99.90;;;;;;5087133;28;20039;-50
2022/01/03 10:29:55;;;;;;;18.88;6.75;;;10.70;99.90;;;;;;5087506;28;20482;-49
2022/01/03 10:32:30;;;;;;;;;;;10.80;99.90;;;;;;5088231;28;20024;-48
2022/01/03 10:34:58;;;;;;;14.80;5.63;;;10.80;99.90;;;;;;5087715;28;20428;-47
2022/01/03 10:37:35;;;;;;;22.40;6.32;;;10.80;99.90;;;;;;5087474;28;20560;-47
2022/01/03 10:40:25;;;;;;;29.05;6.45;;;10.80;99.90;;;;;;5070576;28;20032;-47
2022/01/03 10:42:51;;;;;;;21.10;5.90;;;10.80;99.90;;;;;;5067957;28;20021;-47
2022/01/03 10:45:31;;;;;;;20.33;6.13;;;10.80;99.90;;;;;;5070881;28;20032;-49
2022/01/03 10:47:57;;;;;;;17.45;5.30;;;11.00;99.90;;;;;;5069289;28;20020;-48
2022/01/03 10:50:24;;;;;;;20.80;5.97;;;11.30;99.90;;;;;;5071344;28;20028;-49
2022/01/03 10:52:50;;;;;;;19.33;6.80;;;11.30;99.90;;;;;;5070798;28;20075;-47
2022/01/03 10:55:21;;;;;;;18.80;5.95;;;11.20;99.90;;;;;;5072278;28;20016;-48
2022/01/03 10:57:50;;;;;;;20.60;5.35;;;11.20;99.90;;;;;;5075543;28;20074;-48
2022/01/03 11:00:21;;;;;;;25.42;5.47;;;11.30;99.90;;;;;;5087399;28;20469;-47
2022/01/03 11:03:20;;;;;;;21.52;6.10;;;11.50;99.90;;;;;;5088123;28;20468;-49
2022/01/03 11:05:52;;;;;;;19.85;4.78;;;11.90;99.90;;;;;;5091633;28;20020;-47
2022/01/03 11:11:04;;;;;;;14.90;5.07;;;13.70;99.90;;;;;;5081338;28;20047;-49
2022/01/03 11:13:32;;;;;;;18.92;4.85;;;13.70;99.90;;;;;;5091766;28;20028;-48
2022/01/03 11:16:01;;;;;;;20.77;5.22;;;13.50;99.90;;;;;;5090433;28;20329;-49
2022/01/03 11:18:35;;;;;;;14.75;4.28;;;13.70;99.90;;;;;;5091136;28;20031;-48
2022/01/03 11:21:26;;;;;;;26.90;5.15;;;14.30;99.90;;;;;;5091633;28;20046;-49
2022/01/03 11:24:00;;;;;;;17.63;4.32;;;14.50;99.90;;;;;;5091210;28;20099;-48
2022/01/03 11:26:30;;;;;;;17.23;4.22;;;14.10;99.90;;;;;;5084750;28;20118;-49
2022/01/03 11:28:56;;;;;;;20.00;5.68;;;13.70;99.90;;;;;;5087460;28;20016;-48
2022/01/03 11:31:22;;;;;;;15.85;4.30;;;13.40;99.90;;;;;;5091473;28;20020;-47
2022/01/03 11:33:51;;;;;;;16.30;4.43;;;12.90;99.90;;;;;;5091703;28;20044;-48
2022/01/03 11:36:19;;;;;;;17.60;4.32;;;12.80;99.90;;;;;;5087376;28;20024;-49
2022/01/03 11:38:45;;;;;;;22.40;4.65;;;12.80;99.90;;;;;;5071598;28;21048;-47
2022/01/03 11:41:12;;;;;;;22.77;4.90;;;12.30;99.90;;;;;;5082862;28;20086;-50
2022/01/03 11:43:40;;;;;;;17.17;4.63;;;12.40;99.90;;;;;;5089994;28;20036;-47
2022/01/03 11:46:06;;;;;;;14.82;4.88;;;12.50;99.90;;;;;;5091144;28;20027;-47
2022/01/03 11:48:31;;;;;;;15.55;5.53;;;12.50;99.90;;;;;;5090379;28;20102;-47
2022/01/03 11:51:04;;;;;;;14.93;4.47;;;12.30;99.90;;;;;;5074052;28;20043;-46
2022/01/03 11:53:31;;;;;;;17.80;4.57;;;12.20;99.90;;;;;;5068864;28;20074;-47
2022/01/03 11:56:12;;;;;;;16.00;4.57;;;12.30;99.90;;;;;;5086626;28;20024;-47
2022/01/03 11:58:50;;;;;;;26.60;4.55;;;12.30;99.90;;;;;;5069812;28;20024;-47
2022/01/03 12:04:10;;;;;;;14.98;4.60;;;12.50;99.90;;;;;;5071017;28;20398;-47
2022/01/03 12:06:36;;;;;;;13.40;4.65;;;12.50;99.90;;;;;;5070612;28;20054;-48
2022/01/03 12:09:09;;;;;;;13.77;4.43;;;12.50;99.90;;;;;;5069750;28;20032;-47
2022/01/03 12:11:45;;;;;;;13.70;4.40;;;12.40;99.90;;;;;;5070762;28;20039;-47
2022/01/03 12:14:13;;;;;;;15.23;4.28;;;12.30;99.90;;;;;;5072359;28;20069;-46
2022/01/03 12:16:53;;;;;;;16.88;5.03;;;12.10;99.90;;;;;;5081686;28;20027;-47
2022/01/03 12:19:24;;;;;;;17.48;5.32;;;11.90;99.90;;;;;;5081017;28;20044;-48
2022/01/03 12:21:53;;;;;;;14.52;4.70;;;11.70;99.90;;;;;;5073381;28;20433;-47
2022/01/03 12:24:36;;;;;;;14.50;4.68;;;11.70;99.90;;;;;;5073381;28;20023;-46
2022/01/03 12:27:14;;;;;;;16.83;5.10;;;11.60;99.90;;;;;;5074592;28;20024;-47
2022/01/03 12:29:57;;;;;;;16.67;5.28;;;11.50;99.90;;;;;;5070984;28;20111;-46
2022/01/03 12:32:23;;;;;;;13.80;4.90;;;11.40;99.90;;;;;;5087100;28;20019;-46
2022/01/03 12:35:07;;;;;;;20.77;4.45;;;11.30;99.90;;;;;;5073647;28;20025;-46
2022/01/03 12:37:51;;;;;;;15.00;4.93;;;11.30;99.90;;;;;;5070154;28;20115;-46
2022/01/03 12:40:36;;;;;;;16.02;4.72;;;11.30;99.90;;;;;;5069915;28;20020;-47
2022/01/03 12:43:05;;;;;;;17.25;5.43;;;11.30;99.90;;;;;;5071352;28;20027;-48
2022/01/03 12:45:34;;;;;;;14.98;4.70;;;11.30;99.90;;;;;;5069430;28;20051;-48
2022/01/03 12:48:11;;;;;;;18.75;4.57;;;11.30;99.90;;;;;;5070587;28;20086;-46
2022/01/03 12:50:41;;;;;;;14.73;4.60;;;11.30;99.90;;;;;;5081484;28;20102;-46
2022/01/03 12:53:09;;;;;;;15.98;4.38;;;11.40;99.90;;;;;;5089964;28;20070;-46
2022/01/03 12:55:38;;;;;;;15.32;4.78;;;11.40;99.90;;;;;;5088208;28;20152;-48
2022/01/03 12:58:18;;;;;;;16.02;4.82;;;11.40;99.90;;;;;;5087917;28;20024;-47
2022/01/03 13:00:56;;;;;;;11.02;4.07;;;11.30;99.90;;;;;;5080884;28;20055;-46
2022/01/03 13:03:37;;;;;;;12.90;3.78;;;11.30;99.90;;;;;;5070530;28;20070;-47
2022/01/03 13:06:05;;;;;;;15.23;3.78;;;11.30;99.90;;;;;;5067943;28;20035;-46
2022/01/03 13:08:37;;;;;;;12.45;3.95;;;11.30;99.90;;;;;;5067785;28;20376;-47
2022/01/03 13:11:06;;;;;;;16.02;4.53;;;11.30;99.90;;;;;;5070558;28;20051;-47